Crescent City, California
Current Conditions -  °F | °C
As of 9:56 AM on Friday 31 Oct 2014 (Local Time) from KCEC Reporting Station
Scattered Clouds Scattered Clouds  
Wind Chill: 56°   Ceiling: Unl
Heat Index: 56°   Visibility: 10mi
Dew Point: 53°   Wind: 5mph
Humidity: 90%   Direction: 170°S
Pressure: 29.87"   Gusts: NA
Location:  41.74°N, 124.16°W
Report Text: KCEC 311656Z AUTO 17004KT 10SM SCT075 13/12 A2987 RMK AO2 SLP116 T01330117
Loading
Personal Weather Stations






























Interactive Weather Map
Tropical Storm Tracking
New forecast layout! Learn more

10-Day Weather Forecast

Advertisements
Track Severe Weather on mobile